EDDM/MUC METAR and TAF weather

Enter ICAO airport designator
Station Type Date Time Source
EDDM METAR 2021/03/05 18:50 UTC NOAA

EDDM 051850Z 04009KT 9999 FEW019 BKN038 00/M02 Q1027 NOSIG


Station Type Date Time Source
EDDM Decoded METAR 2021/03/05 18:50 UTC NOAA

Munchen, Germany (EDDM) 48-21N 011-47E
Mar 05, 2021 - 01:50 PM EST / 2021.03.05 1850 UTC
Wind: from the NE (040 degrees) at 10 MPH (9 KT):0
Visibility: greater than 7 mile(s):0
Sky conditions: mostly cloudy
Temperature: 32 F (0 C)
Windchill: 23 F (-5 C):1
Dew Point: 28 F (-2 C)
Relative Humidity: 86%
Pressure (altimeter): 30.33 in. Hg (1027 hPa)
ob: EDDM 051850Z 04009KT 9999 FEW019 BKN038 00/M02 Q1027 NOSIG
cycle: 19

Station Type Date Time Source
EDDM TAF 2021/03/05 18:27 UTC NOAA

TAF EDDM 051700Z 0518/0624 05005KT 9999 FEW025 SCT045
BECMG 0607/0609 08011KT
BECMG 0616/0618 07004KT

Example: see airport list